Historyczne dane pomiarowe

Dodano dane terminowe – wersja testowa.

Dane z okresu 1951-2019

Wersja bazy: 1.34 [2019-03-16, lista zmian], aktualizacja planowana na 2019-04-15

Dane meteo z obszaru Polski uzyskane na podstawie danych udostępnionych przez Instytut Meteorologii i Gospodarki Wodnej – Państwowy Instytut Badawczy.

 

Wybierz Datę:    

       

TemperaturaWilgotnośćZachmurzenieWiatrCiśnienieWidzialnośćZjawiska
 Data    tng td wb rh cc ccl cl cm ch dir g1 g2 mslp ppp      
1999-07-29 00:00:00 12.4--- 9.9 11.084wxwx2wx--1021.4 999.0 0.0---wx
1999-07-29 01:00:00 12.2--- 9.5 10.783wxwx2wx--1021.6 999.2----wx
1999-07-29 02:00:00 11.9--- 9.3 10.584wxwxwx2wx--1021.7 999.2----wx
1999-07-29 03:00:00 11.4--- 8.6 9.983wxwx2wx--1021.9 999.4----wx
1999-07-29 04:00:00 14.0--- 11.0 12.382wxwx2wx--1021.8 999.5----wx
1999-07-29 05:00:00 16.1--- 11.4 13.474wxwx3wx--1021.8 999.6----wx
1999-07-29 06:00:00 17.3--- 12.8 14.675wxwx1wx--1021.8 999.7 0.0---wx
1999-07-29 07:00:00 19.2--- 11.0 14.459wxwx2wx--1021.7 999.8----wx
1999-07-29 08:00:00 20.2--- 10.6 14.654wxwx4wx--1021.6 999.8----wx
1999-07-29 09:00:00 21.4--- 10.0 14.848wxwxwx3wx--1021.6 999.8----wx
1999-07-29 10:00:00 22.6--- 9.4 15.043wxwxwx3wx--1021.2 999.5----wx
1999-07-29 11:00:00 23.2--- 9.3 15.241wxwxwx3wx--1020.8 999.2----wx
1999-07-29 12:00:00 23.0--- 8.6 14.840wxwxwx5wx--1020.3 998.7 0.0---wx
1999-07-29 13:00:00 23.6--- 9.0 15.239wxwxwx5wx--1019.8 998.2----wx
1999-07-29 14:00:00 23.8--- 9.3 15.440wxwxwx4wx--1019.3 997.8----wx
1999-07-29 15:00:00 23.2--- 8.9 15.040wxwxwx2wx--1019.1 997.5----wx
1999-07-29 16:00:00 22.6--- 9.4 15.043wxwxwx5wx--1018.8 997.2----wx
1999-07-29 17:00:00 22.2--- 10.2 15.247wxwx4wx--1018.6 997.0----wx
1999-07-29 18:00:00 20.4--- 11.2 15.056wxwx2wx--1019.1 997.3 0.0---wx
1999-07-29 19:00:00 16.8--- 10.9 13.468wxwx2wx--1019.7 997.6----wx
1999-07-29 20:00:00 15.0--- 10.8 12.676wxwx2wx--1019.9 997.7----wx
1999-07-29 21:00:00 14.2--- 10.7 12.279wxwx2wx--1020.0 997.7----wx
1999-07-29 22:00:00 13.4--- 10.0 11.580wxwx2wx--1020.2 997.9----wx
1999-07-29 23:00:00 13.0--- 10.1 11.483wxwx2wx--1020.5 998.1----wx

 

Źródłem pochodzenia danych jest Instytut Meteorologii i Gospodarki Wodnej – Państwowy Instytut Badawczy. Dane Instytutu Meteorologii i Gospodarki Wodnej – Państwowego Instytutu Badawczego zostały przetworzone.

Dane źródłowe można odnaleźć na stronie https://dane.imgw.pl